• Join FlightAware (Why Join?)
  • Login
  • US Flag 
07:12AM EST


 

Airport Tracker/Info


-or-


 

Live Flight TrackerFlight Track Log ✈ UAL335 ✈ 06-May-2013 ✈ KIAH - KLAX

Flight Track Log - Related Links

Times and Time Zones

All times are in EDT time to prevent confusion due to time zone crossing. See the UAL335 flight status page for this flight to view local times or setup timezone preferences in your user account.

Time Position Orientation Groundspeed Altitude Reporting Facility
EDT Latitude Longitude Course Direction KTS MPH feet Rate Location/Type
04:09PM 29.9408 -95.4136 276° West 238 274 3,500  Level Houston Center
04:09PM 29.9428 -95.4219 285° West 224 258 3,700 2,903 Climbing Houston Center
04:10PM 30.0227 -95.6825 276° West  Level FlightAware Approximate
04:10PM 29.9522 -95.4919 279° West 254 292 6,500  Level Houston Center
04:11PM 30.0333 -95.7996 276° West  Level FlightAware Approximate
04:11PM 29.9756 -95.6006 284° West 267 307 10,300  Level Houston Center
04:12PM 30.0431 -95.9168 276° West  Level FlightAware Approximate
04:12PM 29.9956 -95.7003 283° West 318 366 11,600  Level Houston Center
04:13PM 30.0606 -96.0319 291° West  Level FlightAware Approximate
04:13PM 30.0153 -95.8000 283° West 323 372 15,500  Level Houston Center
04:14PM 30.0756 -96.1479 276° West  Level FlightAware Approximate
04:14PM 30.0378 -95.9006 285° West 325 374 17,400  Level Houston Center
04:15PM 30.0597 -96.0092 283° West 345 397 19,600 2,371 Climbing Houston Center
04:16PM 30.0803 -96.1322 281° West 347 399 22,300 1,903 Climbing Houston Center
04:18PM 30.1158 -96.3578 280° West 366 421 25,500 1,470 Climbing Houston Center
04:20PM 30.1300 -96.5260 276° West  Level FlightAware Approximate
04:20PM 30.1550 -96.6122 276° West 377 434 28,400  Level Houston Center
04:21PM 30.1736 -96.7356 280° West 385 443 29,700 1,113 Climbing Houston Center
04:22PM 30.1914 -96.8631 279° West 394 453 30,700 1,306 Climbing Houston Center
04:23PM 30.2158 -96.9894 283° West 397 457 32,400 1,694 Climbing Houston Center
04:24PM 30.2458 -97.1086 286° West 384 442 34,200 1,597 Climbing Houston Center
04:25PM 30.2753 -97.2489 284° West 378 435 35,700 1,123 Climbing Houston Center
04:27PM 30.3063 -97.3916 286° West  Level FlightAware Approximate
04:27PM 30.3272 -97.4797 286° West 365 420 37,700  Level Houston Center
04:28PM 30.3531 -97.5956 285° West 366 421 38,000 73 Climbing Houston Center
04:30PM 30.3870 -97.7223 285° West  Level FlightAware Approximate
04:32PM 30.4308 -97.9542 284° West 382 440 38,000  Level Houston Center
04:33PM 30.4586 -98.0772 285° West 387 445 38,000  Level Houston Center
04:34PM 30.4856 -98.2033 284° West 395 455 38,000  Level Houston Center
04:35PM 30.5161 -98.3497 284° West 398 458 38,000  Level Houston Center
04:36PM 30.5433 -98.4756 284° West 398 458 38,000  Level Houston Center
04:37PM 30.5564 -98.5698 284° West  Level FlightAware Approximate
04:37PM 30.5711 -98.6011 284° West 397 457 38,000  Level Houston Center
04:38PM 30.5981 -98.7264 284° West 397 457 38,000  Level Houston Center
04:39PM 30.6244 -98.8500 284° West 392 451 38,000  Level Houston Center
04:41PM 30.6654 -99.0587 283° West  Level FlightAware Approximate
04:42PM 30.7031 -99.2322 283° West 388 447 38,000  Level Houston Center
04:43PM 30.7292 -99.3531 284° West 388 447 38,000  Level Houston Center
04:44PM 30.7531 -99.4747 283° West 388 447 38,000 -19 Level Houston Center
04:46PM 30.7831 -99.6632 283° West  Level FlightAware Approximate
04:48PM 30.8578 -99.9917 283° West 394 453 37,900  Level Houston Center
04:50PM 30.8993 -100.1599 286° West  Level Estimated
04:50PM 30.9111 -100.2353 286° West 397 457 38,000  Level Albuquerque Center
04:51PM 30.9369 -100.3872 281° West 394 453 38,000  Level Houston Center
04:53PM 30.9547 -100.5150 283° West  Level FlightAware Approximate
04:53PM 30.9673 -100.5438 283° West  Level FlightAware Approximate
04:53PM 30.9839 -100.6092 283° West 396 456 38,000  Level Albuquerque Center
04:54PM 30.9787 -100.6370 283° West  Level FlightAware Approximate
04:54PM 31.0125 -100.7583 283° West 395 455 37,900  Level Albuquerque Center
04:55PM 31.0361 -100.8844 282° West 397 457 38,000 48 Climbing Albuquerque Center
04:56PM 31.0600 -101.0100 283° West 398 458 38,000  Level Albuquerque Center
04:57PM 31.0886 -101.1581 283° West 395 455 38,000  Level Houston Center
04:58PM 31.1150 -101.2825 284° West 396 456 38,000  Level Houston Center
05:00PM 31.1375 -101.4128 281° West 397 457 38,000  Level Houston Center
05:01PM 31.1833 -101.6631 282° West 395 455 38,000  Level Albuquerque Center
05:02PM 31.2061 -101.7872 282° West 394 453 38,000  Level Albuquerque Center
05:04PM 31.2292 -101.9122 282° West 394 453 38,000  Level Albuquerque Center
05:05PM 31.2539 -102.0583 281° West 407 468 38,000  Level Albuquerque Center
05:06PM 31.2772 -102.1839 282° West 397 457 38,000  Level Albuquerque Center
05:07PM 31.3000 -102.3100 282° West 397 457 38,000  Level Albuquerque Center
05:08PM 31.3231 -102.4350 282° West 394 453 38,000  Level Albuquerque Center
05:09PM 31.3456 -102.5600 282° West 400 460 38,000  Level Albuquerque Center
05:10PM 31.3669 -102.6856 281° West 398 458 38,000  Level Albuquerque Center
05:11PM 31.3939 -102.8383 282° West 398 458 38,000  Level Albuquerque Center
05:12PM 31.4158 -102.9650 282° West 400 460 38,000  Level Albuquerque Center
05:15PM 31.4447 -103.1569 280° West  Level FlightAware Approximate
05:17PM 31.5300 -103.6217 281° West 394 453 38,000  Level Albuquerque Center
05:18PM 31.5506 -103.7467 281° West 392 451 38,000  Level Albuquerque Center
05:19PM 31.5733 -103.8781 282° West 392 451 38,000  Level Albuquerque Center
05:20PM 31.5939 -104.0022 281° West 391 450 38,000 -48 Level Albuquerque Center
05:21PM 31.6147 -104.1264 281° West 390 449 37,900  Descending Albuquerque Center
05:22PM 31.5998 -104.0188 281° West  Level FlightAware Approximate
05:22PM 31.6350 -104.2508 281° West 391 450 38,000  Level Albuquerque Center
05:23PM 31.6195 -104.1426 281° West  Level FlightAware Approximate
05:24PM 31.6637 -104.4305 281° West  Level FlightAware Approximate
05:24PM 31.6778 -104.5042 281° West 399 459 37,900  Level Albuquerque Center
05:25PM 31.7019 -104.6578 281° West 400 460 38,000 49 Climbing Albuquerque Center
05:26PM 31.7228 -104.7844 281° West 398 458 38,000  Level Albuquerque Center
05:27PM 31.7431 -104.9122 281° West 399 459 38,000  Level Albuquerque Center
05:28PM 31.7642 -105.0389 281° West 398 458 38,000  Level Albuquerque Center
05:29PM 31.7847 -105.1644 281° West 395 455 38,000  Level Albuquerque Center
05:30PM 31.8039 -105.2914 280° West 395 455 38,000  Level Albuquerque Center
05:31PM 31.8258 -105.4419 280° West 390 449 38,000  Level Albuquerque Center
05:33PM 31.8467 -105.5893 279° West  Level FlightAware Approximate
05:33PM 31.8639 -105.6911 279° West 390 449 38,000  Level Albuquerque Center
05:35PM 31.8825 -105.8305 279° West  Level FlightAware Approximate
05:36PM 31.9247 -106.0850 277° West 397 457 38,000  Level Albuquerque Center
05:38PM 31.9433 -106.2136 280° West 399 459 38,000  Level Albuquerque Center
05:39PM 31.9580 -106.3401 277° West  Level FlightAware Approximate
05:40PM 31.9778 -106.4731 277° West 402 463 38,000  Level Albuquerque Center
05:41PM 31.9919 -106.6022 277° West 398 458 38,000 -49 Level Albuquerque Center
05:42PM 31.9970 -106.7037 277° West  Level FlightAware Approximate
05:42PM 32.0067 -106.7314 278° West 398 458 37,900  Level Albuquerque Center
05:43PM 32.0242 -106.8867 278° West 397 457 38,000 48 Climbing Albuquerque Center
05:44PM 32.0394 -107.0161 278° West 398 458 38,000 -32 Level Albuquerque Center
05:46PM 32.0672 -107.2747 277° West 395 455 37,900 -24 Descending Albuquerque Center
05:48PM 32.0944 -107.5342 277° West 397 457 37,900 24 Level Albuquerque Center
05:50PM 32.1222 -107.7933 277° West 396 456 38,000 32 Climbing Albuquerque Center
05:51PM 32.1361 -107.9225 277° West 396 456 38,000  Level Albuquerque Center
05:52PM 32.1478 -108.0503 276° West 393 452 38,000  Level Albuquerque Center
05:53PM 32.1622 -108.1817 277° West 393 452 38,000 -49 Level Albuquerque Center
05:54PM 32.1769 -108.3328 277° West 393 452 37,900  Descending Albuquerque Center
05:56PM 32.2373 -108.5145 291° West  Level FlightAware Approximate
05:56PM 32.2314 -108.5858 291° West 400 460 38,000  Level Albuquerque Center
05:57PM 32.2733 -108.7067 292° West 400 460 38,000  Level Albuquerque Center
05:58PM 32.3150 -108.8264 292° West 399 459 38,000  Level Albuquerque Center
05:59PM 32.3561 -108.9453 292° West 396 456 38,000  Level Albuquerque Center
06:00PM 32.4047 -109.0900 292° West 395 455 38,000  Level Albuquerque Center
06:01PM 32.4456 -109.2111 292° West 397 457 38,000  Level Albuquerque Center
06:02PM 32.4856 -109.3333 291° West 399 459 38,000  Level Albuquerque Center
06:04PM 32.5370 -109.4883 292° West  Level FlightAware Approximate
06:04PM 32.5653 -109.5786 292° West 401 461 38,000  Level Albuquerque Center
06:06PM 32.6147 -109.7280 291° West  Level FlightAware Approximate
06:06PM 32.6481 -109.8242 291° West 406 467 38,000  Level Albuquerque Center
06:07PM 32.6947 -109.9694 291° West 398 458 38,000  Level Albuquerque Center
06:09PM 32.7404 -110.1095 291° West  Level FlightAware Approximate
06:09PM 32.7725 -110.2094 291° West 401 461 38,000  Level Los Angeles Center
06:10PM 32.8139 -110.3386 291° West 403 464 38,000  Level Albuquerque Center
06:11PM 32.8519 -110.4608 290° West 400 460 38,000  Level Albuquerque Center
06:12PM 32.8908 -110.5836 291° West 400 460 38,000  Level Albuquerque Center
06:14PM 32.9761 -110.8542 291° West 401 461 38,000  Level Albuquerque Center
06:16PM 33.0153 -110.9778 291° West 400 460 38,000  Level Albuquerque Center
06:17PM 33.0544 -111.1019 291° West 400 460 38,000  Level Albuquerque Center
06:19PM 33.1464 -111.3992 290° West 399 459 38,000  Level Los Angeles Center
06:20PM 33.1697 -111.4739 290° West 400 460 38,000  Level Albuquerque Center
06:21PM 33.2150 -111.6258 290° West 402 463 38,000  Level Albuquerque Center
06:22PM 33.2539 -111.7522 290° West 404 465 38,000  Level Albuquerque Center
06:24PM 33.3300 -112.0050 290° West 403 464 38,000  Level Albuquerque Center
06:25PM 33.3692 -112.1311 290° West 403 464 38,000  Level Albuquerque Center
06:26PM 33.4064 -112.2572 290° West 402 463 38,000  Level Albuquerque Center
06:27PM 33.4442 -112.3831 290° West 401 461 38,000  Level Albuquerque Center
06:28PM 33.4814 -112.5103 289° West 403 464 38,000 -49 Level Albuquerque Center
06:29PM 33.5225 -112.6486 290° West 403 464 37,900  Descending Albuquerque Center
06:31PM 33.5961 -112.8989 290° West 401 461 38,000 24 Climbing Albuquerque Center
06:33PM 33.6376 -113.0467 289° West  Level FlightAware Approximate
06:33PM 33.6731 -113.1661 289° West 399 459 38,000  Level Albuquerque Center
06:34PM 33.7100 -113.2922 289° West 399 459 38,000 -29 Level Albuquerque Center
06:36PM 33.8008 -113.6092 289° West 404 465 37,900  Descending Los Angeles Center
06:37PM 33.8181 -113.6761 287° West 405 466 38,000 61 Climbing Albuquerque Center
06:38PM 33.8556 -113.8053 289° West 407 468 38,000  Level Albuquerque Center
06:39PM 33.8906 -113.9342 288° West 407 468 38,000  Level Albuquerque Center
06:41PM 33.9692 -114.2136 289° West 402 463 38,000 -33 Level Albuquerque Center
06:42PM 34.0069 -114.3472 289° West 403 464 37,900  Descending Albuquerque Center
06:43PM 34.0225 -114.4011 289° West 405 466 38,000  Climbing Los Angeles Center
06:45PM 34.0928 -114.6550 289° West 402 463 37,900  Descending Los Angeles Center
06:47PM 34.1047 -114.9436 273° West 397 457 38,000 32 Climbing Los Angeles Center
06:48PM 34.1064 -115.0750 271° West 395 455 38,000 -48 Level Los Angeles Center
06:49PM 34.1086 -115.2067 271° West 393 452 37,900 -545 Descending Los Angeles Center
06:51PM 34.1001 -115.4185 270° West  Level FlightAware Approximate
06:51PM 34.1117 -115.4647 270° West 380 437 36,200  Level Los Angeles Center
06:52PM 34.1119 -115.5908 270° West 378 435 34,600 -1,742 Descending Los Angeles Center
06:53PM 34.1128 -115.7694 270° West 382 440 32,600 -1,694 Descending Los Angeles Center
06:54PM 34.0942 -115.8983 260° West 395 455 31,100 -1,707 Descending Los Angeles Center
06:55PM 34.0786 -116.0003 260° West 390 449 29,100 -2,613 Descending Los Angeles Center
06:56PM 34.0558 -116.1522 260° West 386 444 25,700 -2,448 Descending Los Angeles Center
06:57PM 34.0369 -116.2778 260° West 384 442 24,000 -823 Descending Los Angeles Center
06:58PM 34.0142 -116.4267 260° West 379 436 24,000  Level Los Angeles Center
06:59PM 33.9997 -116.5528 262° West 381 438 24,000 -681 Level Los Angeles Center
07:01PM 33.9806 -116.8019 265° West 376 433 21,900 -1,552 Descending Los Angeles Center
07:02PM 33.9667 -116.9167 262° West 351 404 19,500 -2,629 Descending Southern California TRACON
07:03PM 33.9667 -117.0167 270° West 347 399 17,300 -1,300 Descending Southern California TRACON
07:04PM 33.9500 -117.1500 261° West 352 405 16,900 -1,050 Descending Southern California TRACON
07:05PM 33.9500 -117.2500 270° West 345 397 15,200 -1,690 Descending Southern California TRACON
07:07PM 33.9667 -117.4667 275° West 337 388 12,000 -1,567 Descending Southern California TRACON
07:08PM 34.0000 -117.5667 292° West 342 394 10,500 -1,000 Descending Southern California TRACON
07:09PM 34.0000 -117.6667 270° West 303 349 10,000 -750 Descending Southern California TRACON
07:10PM 34.0000 -117.7667 270° West 274 315 9,000 -1,200 Descending Southern California TRACON
07:11PM 33.9833 -117.8500 256° West 279 321 7,600 -1,261 Descending Southern California TRACON
07:13PM 33.9772 -117.9856 267° West 277 319 5,700 -1,050 Descending Los Angeles Center
07:13PM 33.9667 -118.0333 255° West 265 305 5,500 -723 Descending Southern California TRACON
07:14PM 33.9667 -118.1167 270° West 230 265 4,700 -696 Descending Southern California TRACON
07:15PM 33.9600 -118.1617 260° West 233 268 4,200 -984 Descending Los Angeles Center
07:17PM 33.9450 -118.3094 263° West 186 214 1,600 -1,116 Descending Los Angeles Center
07:18PM 33.9403 -118.3633 264° West 151 174 500 -726 Descending Los Angeles Center
07:19PM 33.9356 -118.4042 262° West 147 169 100 -387 Descending Los Angeles Center